Terminal Aerodrome Forecast
Issued by NWS Spokane, WA

Home | Current Version | Previous Version | Text Only | Print | Product List | Glossary On
Versions: 1 2 3 4 5 6 7 8 9 10 11 12 13 14 15 16 17 18 19 20 21 22 23 24 25 26 27 28 29 30 31 32 33 34 35 36 37 38 39 40 41 42 43 44 45 46 47 48 49 50
000
FTUS46 KOTX 230539
TAFGEG
TAF
KGEG 230539Z 2306/2406 23006KT P6SM SCT030
     FM230900 22006KT P6SM BKN010
     FM231500 20008KT 2SM -SN BKN008 OVC040
     FM231700 20012KT 4SM -SNRA BKN010 OVC030
     FM231900 22017G26KT P6SM -RA BKN013 OVC035
     FM240200 23012KT P6SM SCT020 BKN090=

USA.gov is the U.S. government's official web portal to all federal, state and local government web resources and services.